Flight Track Log - Related Links

Times and Time Zones

All times are in EDT time to prevent confusion due to time zone crossing. See the SWA862 flight status page for this flight to view local times or setup timezone preferences in your user account.

Time Position Orientation Groundspeed Altitude Reporting Facility
EDT Latitude Longitude Course Direction KTS MPH feet Rate Location/Type
Sun 10:53:33 PM 36.0764 -115.0403 89° East 232 267 4,900  Level Los Angeles Center
Sun 10:54:17 PM 36.0758 -114.9836 91° East 260 299 6,500 2,800 Climbing Los Angeles Center
Sun 10:55:18 PM 36.0644 -114.8808 98° East 299 344 9,800 2,951 Climbing Los Angeles Center
Sun 10:56:19 PM 36.0492 -114.7689 100° East 330 380 12,500 2,902 Climbing Los Angeles Center
Sun 10:57:20 PM 36.0311 -114.6469 100° East 357 411 15,700 2,901 Climbing Los Angeles Center
Sun 10:59:21 PM 35.9939 -114.3878 100° East 383 441 21,300 2,818 Climbing Albuquerque Center
Sun 11:00:21 PM 35.9331 -114.2442 118° Southeast 392 451 24,200 2,479 Climbing Albuquerque Center
Sun 11:01:22 PM 35.8606 -114.1369 130° Southeast 401 461 26,300 2,231 Climbing Albuquerque Center
Sun 11:02:22 PM 35.7861 -114.0286 130° Southeast 408 470 28,700 1,339 Climbing Albuquerque Center
Sun 11:03:23 PM 35.7117 -113.9194 130° Southeast 413 475 29,000 148 Climbing Albuquerque Center
Sun 11:04:24 PM 35.6361 -113.8069 130° Southeast 421 484 29,000  Level Albuquerque Center
Sun 11:05:29 PM 35.5608 -113.6981 130° Southeast 424 488 29,000  Level Los Angeles Center
Sun 11:06:30 PM 35.4850 -113.5908 131° Southeast 420 483 29,000  Level Los Angeles Center
Sun 11:07:31 PM 35.4103 -113.4825 130° Southeast 420 483 29,000  Level Los Angeles Center
Sun 11:08:32 PM 35.3342 -113.3744 131° Southeast 423 487 29,000  Level Los Angeles Center
Sun 11:09:33 PM 35.2542 -113.2600 131° Southeast 421 484 29,000  Level Los Angeles Center
Sun 11:10:34 PM 35.1614 -113.1272 130° Southeast 426 490 29,000  Level Los Angeles Center
Sun 11:11:36 PM 35.0903 -113.0328 133° Southeast 424 488 29,000  Level Los Angeles Center
Sun 11:12:37 PM 34.9961 -112.9475 143° Southeast 428 493 29,000  Level Los Angeles Center
Sun 11:13:30 PM 34.9014 -112.8631 144° Southeast 424 488 29,000  Level Albuquerque Center
Sun 11:14:30 PM 34.8072 -112.7783 144° Southeast 423 487 29,000  Level Albuquerque Center
Sun 11:15:31 PM 34.7136 -112.6942 144° Southeast 422 486 29,000 -197 Level Albuquerque Center
Sun 11:16:32 PM 34.6194 -112.6092 143° Southeast 424 488 28,600 -1,279 Descending Albuquerque Center
Sun 11:17:33 PM 34.5269 -112.5269 144° Southeast 418 481 26,400 -2,281 Descending Albuquerque Center
Sun 11:18:33 PM 34.4303 -112.4419 144° Southeast 406 467 24,000 -2,331 Descending Albuquerque Center
Sun 11:19:34 PM 34.3422 -112.3636 144° Southeast 396 456 21,700 -2,164 Descending Albuquerque Center
Sun 11:20:35 PM 34.2589 -112.2900 144° Southeast 380 437 19,600 -2,132 Descending Albuquerque Center
Sun 11:21:35 PM 34.1775 -112.2178 144° Southeast 368 423 17,400 -1,934 Descending Albuquerque Center
Sun 11:22:36 PM 34.0989 -112.1475 143° Southeast 355 409 15,700 -1,377 Descending Albuquerque Center
Sun 11:23:37 PM 34.0142 -112.1172 163° South 324 373 14,600 -1,230 Descending Albuquerque Center
Sun 11:24:38 PM 33.9311 -112.0961 168° South 309 356 13,200 -1,438 Descending Albuquerque Center
Sun 11:25:38 PM 33.8506 -112.0767 169° South 300 345 11,700 -1,488 Descending Albuquerque Center
Sun 11:26:39 PM 33.7706 -112.0558 168° South 298 343 10,200 -836 Descending Albuquerque Center
Sun 11:27:40 PM 33.6761 -112.0386 171° South 288 331 10,000 -480 Descending Albuquerque Center
Sun 11:28:19 PM 33.6167 -112.0333 176° South 278 320 9,400 -848 Descending Phoenix TRACON
Sun 11:29:19 PM 33.5500 -112.0000 157° South 252 290 8,600 -1,000 Descending Phoenix TRACON
Sun 11:30:19 PM 33.5333 -111.9333 107° East 247 284 7,400 -1,190 Descending Phoenix TRACON
Sun 11:31:25 PM 33.5333 -111.8500 90° East 249 287 6,100 -1,190 Descending Phoenix TRACON
Sun 11:32:25 PM 33.4833 -111.8000 140° Southeast 244 281 4,900 -1,000 Descending Phoenix TRACON
Sun 11:33:25 PM 33.4500 -111.8500 231° Southwest 175 201 4,100 -1,148 Descending Phoenix TRACON
Sun 11:34:20 PM 33.4333 -111.9000 248° West 162 186 2,700 -1,140 Descending Phoenix TRACON
Sun 11:35:26 PM 33.4333 -111.9500 270° West 144 166 1,800 -818 Descending Phoenix TRACON

Login

Don't have an account? Register now (free) for customized features, flight alerts, and more!